Time;durP1;ratioP1;P1;durP2;ratioP2;P2;SDS_P1;SDS_P2;PMS_P1;PMS_P2;Temp;Humidity;BMP_temperature;BMP_pressure;BME280_temperature;BME280_humidity;BME280_pressure;Samples;Min_cycle;Max_cycle;Signal;HPM_P1;HPM_P2
2023/12/02 00:01:27;;;;;;;29.67;16.95;;;;;;;;;;5044747;28;20041;-76
2023/12/02 00:03:53;;;;;;;30.17;18.08;;;;;;;;;;5031576;28;20048;-76
2023/12/02 00:06:20;;;;;;;32.53;17.63;;;;;;;;;;5033058;28;20116;-76
2023/12/02 00:08:46;;;;;;;28.42;17.48;;;;;;;;;;5037058;28;20110;-75
2023/12/02 00:11:12;;;;;;;35.15;18.77;;;;;;;;;;5045197;28;20028;-75
2023/12/02 00:13:38;;;;;;;36.60;19.15;;;;;;;;;;5039499;28;20108;-75
2023/12/02 00:16:04;;;;;;;32.03;19.02;;;;;;;;;;5047601;28;20021;-76
2023/12/02 00:18:31;;;;;;;29.30;17.92;;;;;;;;;;5030756;28;20041;-76
2023/12/02 00:20:57;;;;;;;30.98;18.73;;;;;;;;;;5031327;28;20038;-76
2023/12/02 00:23:23;;;;;;;28.75;17.55;;;;;;;;;;5032475;28;20037;-76
2023/12/02 00:25:49;;;;;;;24.38;16.52;;;;;;;;;;5038056;28;20040;-76
2023/12/02 00:28:15;;;;;;;29.67;18.10;;;;;;;;;;5038449;28;20041;-76
2023/12/02 00:30:41;;;;;;;26.30;16.38;;;;;;;;;;5047606;28;20040;-76
2023/12/02 00:33:07;;;;;;;28.90;17.73;;;;;;;;;;5025679;28;20040;-76
2023/12/02 00:35:33;;;;;;;25.13;15.52;;;;;;;;;;5048656;28;20036;-76
2023/12/02 00:37:59;;;;;;;28.67;16.80;;;;;;;;;;5045103;28;20033;-76
2023/12/02 00:40:25;;;;;;;28.77;15.77;;;;;;;;;;5050769;28;20025;-75
2023/12/02 00:42:51;;;;;;;30.10;18.00;;;;;;;;;;5050619;28;20051;-76
2023/12/02 00:45:17;;;;;;;29.38;17.60;;;;;;;;;;5032664;28;20033;-76
2023/12/02 00:47:44;;;;;;;27.83;17.92;;;;;;;;;;5032357;28;20034;-76
2023/12/02 00:50:10;;;;;;;33.15;19.08;;;;;;;;;;5043258;28;20542;-76
2023/12/02 00:52:36;;;;;;;27.42;17.13;;;;;;;;;;5047809;28;20414;-76
2023/12/02 00:55:02;;;;;;;26.42;17.08;;;;;;;;;;5033754;28;20030;-76
2023/12/02 00:57:28;;;;;;;28.60;18.70;;;;;;;;;;5046248;28;20044;-76
2023/12/02 00:59:54;;;;;;;31.83;17.95;;;;;;;;;;5032725;28;20036;-76
2023/12/02 01:02:20;;;;;;;26.67;16.00;;;;;;;;;;5047145;28;20040;-76
2023/12/02 01:04:46;;;;;;;28.90;17.00;;;;;;;;;;5033381;28;20053;-76
2023/12/02 01:07:12;;;;;;;25.38;15.95;;;;;;;;;;5030741;28;20483;-77
2023/12/02 01:09:38;;;;;;;26.90;17.48;;;;;;;;;;5031466;28;20034;-76
2023/12/02 01:12:04;;;;;;;31.35;18.75;;;;;;;;;;5033120;28;20493;-76
2023/12/02 01:14:30;;;;;;;29.52;17.15;;;;;;;;;;5043455;28;20021;-76
2023/12/02 01:16:56;;;;;;;28.35;16.85;;;;;;;;;;5043255;28;20475;-76
2023/12/02 01:19:22;;;;;;;26.02;16.08;;;;;;;;;;5040909;28;20083;-76
2023/12/02 01:21:48;;;;;;;27.13;16.55;;;;;;;;;;5034581;28;20037;-76
2023/12/02 01:24:15;;;;;;;28.70;16.67;;;;;;;;;;5040416;28;20084;-76
2023/12/02 01:26:41;;;;;;;28.15;17.52;;;;;;;;;;5036436;28;20364;-76
2023/12/02 01:29:07;;;;;;;26.13;16.73;;;;;;;;;;5044848;28;20158;-76
2023/12/02 01:31:33;;;;;;;25.95;16.33;;;;;;;;;;5046369;28;20025;-76
2023/12/02 01:33:59;;;;;;;29.92;17.25;;;;;;;;;;5033768;28;20119;-76
2023/12/02 01:36:25;;;;;;;29.08;18.08;;;;;;;;;;5045097;28;20048;-76
2023/12/02 01:38:51;;;;;;;27.05;17.48;;;;;;;;;;5047364;28;20041;-76
2023/12/02 01:41:17;;;;;;;27.90;17.27;;;;;;;;;;5041480;28;20057;-76
2023/12/02 01:43:44;;;;;;;28.13;18.48;;;;;;;;;;5051521;28;20083;-76
2023/12/02 01:46:10;;;;;;;25.42;17.00;;;;;;;;;;5042846;28;20105;-76
2023/12/02 01:48:36;;;;;;;30.27;17.55;;;;;;;;;;5033287;28;20446;-76
2023/12/02 01:51:03;;;;;;;29.58;17.80;;;;;;;;;;5034797;28;20036;-76
2023/12/02 01:53:29;;;;;;;30.38;17.75;;;;;;;;;;5047598;28;20045;-76
2023/12/02 01:55:55;;;;;;;26.50;17.60;;;;;;;;;;5040216;28;20159;-76
2023/12/02 01:58:21;;;;;;;27.38;17.75;;;;;;;;;;5050832;28;20033;-76
2023/12/02 02:00:48;;;;;;;31.92;18.48;;;;;;;;;;5045534;28;20104;-76
2023/12/02 02:03:14;;;;;;;30.92;18.85;;;;;;;;;;5040365;28;20041;-76
2023/12/02 02:05:40;;;;;;;33.78;18.30;;;;;;;;;;5042995;28;20030;-76
2023/12/02 02:08:06;;;;;;;32.78;20.15;;;;;;;;;;5039608;28;20055;-76
2023/12/02 02:10:32;;;;;;;29.70;19.13;;;;;;;;;;5046523;28;20091;-76
2023/12/02 02:12:58;;;;;;;32.97;18.27;;;;;;;;;;5045304;28;20029;-76
2023/12/02 02:15:24;;;;;;;29.88;18.65;;;;;;;;;;5035717;28;20387;-76
2023/12/02 02:17:50;;;;;;;32.67;19.08;;;;;;;;;;5046080;28;20107;-76
2023/12/02 02:20:16;;;;;;;33.05;20.10;;;;;;;;;;5048008;28;20045;-76
2023/12/02 02:22:42;;;;;;;30.20;19.80;;;;;;;;;;5050167;28;20076;-76
2023/12/02 02:25:08;;;;;;;29.60;18.65;;;;;;;;;;5034531;28;20029;-76
2023/12/02 02:27:34;;;;;;;29.60;18.38;;;;;;;;;;5047320;28;20049;-76
2023/12/02 02:30:00;;;;;;;32.90;18.50;;;;;;;;;;5047338;28;20087;-76
2023/12/02 02:32:26;;;;;;;29.88;19.30;;;;;;;;;;5048576;28;20033;-76
2023/12/02 02:34:52;;;;;;;29.92;18.95;;;;;;;;;;5036706;28;20103;-76
2023/12/02 02:37:19;;;;;;;31.38;19.23;;;;;;;;;;5050944;28;20036;-76
2023/12/02 02:39:45;;;;;;;32.10;18.70;;;;;;;;;;5050282;28;20029;-76
2023/12/02 02:42:11;;;;;;;29.63;18.80;;;;;;;;;;5047142;28;20024;-76
2023/12/02 02:44:38;;;;;;;28.67;18.40;;;;;;;;;;5033171;28;20107;-76
2023/12/02 02:47:04;;;;;;;31.05;19.05;;;;;;;;;;5042240;28;20038;-76
2023/12/02 02:49:30;;;;;;;30.38;18.23;;;;;;;;;;5043817;28;20651;-76
2023/12/02 02:51:57;;;;;;;30.00;18.10;;;;;;;;;;5049344;28;20051;-76
2023/12/02 02:54:23;;;;;;;28.08;18.25;;;;;;;;;;5038040;28;20443;-76
2023/12/02 02:56:49;;;;;;;32.35;18.98;;;;;;;;;;5032058;28;20037;-76
2023/12/02 02:59:16;;;;;;;28.15;18.10;;;;;;;;;;5036615;28;20382;-76
2023/12/02 03:01:43;;;;;;;29.70;18.30;;;;;;;;;;5050603;28;20104;-76
2023/12/02 03:04:09;;;;;;;30.10;18.63;;;;;;;;;;5044178;28;20106;-76
2023/12/02 03:06:35;;;;;;;32.03;18.83;;;;;;;;;;5045718;28;20384;-76
2023/12/02 03:09:01;;;;;;;31.25;18.52;;;;;;;;;;5046787;28;20049;-76
2023/12/02 03:11:27;;;;;;;30.50;18.02;;;;;;;;;;5051525;28;20514;-76
2023/12/02 03:13:53;;;;;;;29.20;17.73;;;;;;;;;;5050410;28;20410;-76
2023/12/02 03:16:20;;;;;;;30.90;19.27;;;;;;;;;;5045570;28;20029;-76
2023/12/02 03:18:46;;;;;;;31.05;19.88;;;;;;;;;;5018453;28;20407;-76
2023/12/02 03:21:12;;;;;;;28.83;17.30;;;;;;;;;;5033370;28;20441;-77
2023/12/02 03:23:38;;;;;;;30.70;17.67;;;;;;;;;;5033462;28;20401;-77
2023/12/02 03:26:04;;;;;;;29.40;18.20;;;;;;;;;;5037651;28;20096;-76
2023/12/02 03:28:30;;;;;;;28.13;17.33;;;;;;;;;;5036122;28;20065;-76
2023/12/02 03:30:56;;;;;;;28.48;17.52;;;;;;;;;;5039853;28;20025;-77
2023/12/02 03:33:22;;;;;;;31.75;16.23;;;;;;;;;;5037587;28;20029;-77
2023/12/02 03:35:49;;;;;;;28.55;17.35;;;;;;;;;;5045280;28;20041;-77
2023/12/02 03:38:15;;;;;;;27.58;16.40;;;;;;;;;;5031494;28;20036;-77
2023/12/02 03:40:41;;;;;;;26.77;16.65;;;;;;;;;;5039806;28;20033;-77
2023/12/02 03:43:07;;;;;;;27.67;16.65;;;;;;;;;;5039867;28;20466;-77
2023/12/02 03:45:33;;;;;;;35.08;16.77;;;;;;;;;;5034327;28;20096;-75
2023/12/02 03:47:59;;;;;;;26.67;17.27;;;;;;;;;;5041632;28;20045;-76
2023/12/02 03:50:25;;;;;;;26.42;16.50;;;;;;;;;;5038897;28;20429;-76
2023/12/02 03:52:51;;;;;;;30.23;16.73;;;;;;;;;;5026512;28;20163;-76
2023/12/02 03:55:18;;;;;;;26.80;17.08;;;;;;;;;;5041756;28;20052;-76
2023/12/02 03:57:44;;;;;;;29.02;17.55;;;;;;;;;;5032436;28;20474;-77
2023/12/02 04:00:13;;;;;;;28.33;17.45;;;;;;;;;;5049683;28;20037;-76
2023/12/02 04:02:39;;;;;;;33.33;18.60;;;;;;;;;;5050326;28;20044;-76
2023/12/02 04:05:09;;;;;;;28.77;17.65;;;;;;;;;;5050341;28;20288;-76
2023/12/02 04:07:36;;;;;;;27.50;16.73;;;;;;;;;;5048720;28;20075;-76
2023/12/02 04:10:03;;;;;;;28.70;17.30;;;;;;;;;;5042200;28;20033;-76
2023/12/02 04:12:29;;;;;;;26.55;16.85;;;;;;;;;;5050089;28;20036;-76
2023/12/02 04:14:56;;;;;;;27.80;16.90;;;;;;;;;;5047390;28;20105;-76
2023/12/02 04:17:22;;;;;;;27.35;17.17;;;;;;;;;;5034945;28;20080;-76
2023/12/02 04:19:48;;;;;;;26.98;15.55;;;;;;;;;;5036696;28;20029;-76
2023/12/02 04:22:14;;;;;;;26.02;16.45;;;;;;;;;;5031374;28;20030;-76
2023/12/02 04:24:40;;;;;;;28.52;16.67;;;;;;;;;;5019202;28;20382;-76
2023/12/02 04:27:07;;;;;;;29.77;17.02;;;;;;;;;;5044192;28;20071;-76
2023/12/02 04:29:36;;;;;;;31.65;17.55;;;;;;;;;;5029695;28;20040;-76
2023/12/02 04:32:03;;;;;;;30.73;18.17;;;;;;;;;;5039790;28;20563;-76
2023/12/02 04:34:29;;;;;;;31.38;17.42;;;;;;;;;;5011816;28;20038;-76
2023/12/02 04:36:56;;;;;;;31.05;17.23;;;;;;;;;;5036150;28;20038;-76
2023/12/02 04:39:22;;;;;;;29.45;17.90;;;;;;;;;;5013453;28;20151;-76
2023/12/02 04:41:48;;;;;;;31.00;17.83;;;;;;;;;;5036408;28;20033;-76
2023/12/02 04:44:14;;;;;;;31.17;17.30;;;;;;;;;;5050721;28;20048;-76
2023/12/02 04:46:43;;;;;;;26.90;16.50;;;;;;;;;;5040959;28;20581;-76
2023/12/02 04:49:09;;;;;;;28.98;17.88;;;;;;;;;;5040949;28;20619;-76
2023/12/02 04:51:35;;;;;;;27.50;16.90;;;;;;;;;;5049322;28;20036;-76
2023/12/02 04:54:01;;;;;;;32.80;19.38;;;;;;;;;;5042354;28;20041;-76
2023/12/02 04:56:27;;;;;;;29.80;18.05;;;;;;;;;;5038244;28;20033;-76
2023/12/02 04:58:53;;;;;;;26.63;17.70;;;;;;;;;;5046746;28;20075;-76
2023/12/02 05:01:19;;;;;;;30.02;16.60;;;;;;;;;;5052582;28;20037;-76
2023/12/02 05:03:45;;;;;;;29.30;17.55;;;;;;;;;;5041603;28;20033;-76
2023/12/02 05:06:15;;;;;;;29.23;18.38;;;;;;;;;;5052797;28;20029;-76
2023/12/02 05:08:41;;;;;;;27.70;18.60;;;;;;;;;;5032154;28;20575;-76
2023/12/02 05:11:08;;;;;;;30.52;18.17;;;;;;;;;;5035354;28;20036;-76
2023/12/02 05:13:34;;;;;;;33.08;19.17;;;;;;;;;;5049013;28;20041;-76
2023/12/02 05:16:00;;;;;;;32.00;18.75;;;;;;;;;;5033542;28;20116;-76
2023/12/02 05:18:26;;;;;;;34.97;18.58;;;;;;;;;;5042516;28;20041;-76
2023/12/02 05:20:52;;;;;;;31.92;19.52;;;;;;;;;;5042526;28;20044;-76
2023/12/02 05:23:18;;;;;;;32.83;18.83;;;;;;;;;;5051893;28;20032;-76
2023/12/02 05:25:44;;;;;;;30.15;18.52;;;;;;;;;;5052963;28;20077;-76
2023/12/02 05:28:10;;;;;;;31.85;18.67;;;;;;;;;;5053251;28;20091;-76
2023/12/02 05:30:36;;;;;;;35.65;19.42;;;;;;;;;;5052579;28;20045;-76
2023/12/02 05:33:02;;;;;;;29.23;17.95;;;;;;;;;;5055939;28;20479;-76
2023/12/02 05:35:28;;;;;;;34.10;19.45;;;;;;;;;;5034167;28;20033;-76
2023/12/02 05:37:54;;;;;;;30.30;18.02;;;;;;;;;;5043694;28;20040;-76
2023/12/02 05:40:20;;;;;;;35.65;19.10;;;;;;;;;;5053864;28;20033;-76
2023/12/02 05:42:46;;;;;;;30.88;19.00;;;;;;;;;;5052968;28;20624;-76
2023/12/02 05:45:12;;;;;;;32.40;18.85;;;;;;;;;;5053595;28;20033;-76
2023/12/02 05:47:38;;;;;;;32.67;17.95;;;;;;;;;;5050530;28;20051;-76
2023/12/02 05:50:05;;;;;;;34.17;19.27;;;;;;;;;;5044833;28;20159;-76
2023/12/02 05:52:31;;;;;;;33.03;18.92;;;;;;;;;;5050086;28;20032;-76
2023/12/02 05:54:57;;;;;;;34.67;18.58;;;;;;;;;;5024604;28;20049;-76
2023/12/02 05:57:23;;;;;;;31.00;18.17;;;;;;;;;;5052550;28;20037;-76
2023/12/02 05:59:50;;;;;;;28.73;19.55;;;;;;;;;;5051603;28;20033;-76
2023/12/02 06:02:16;;;;;;;31.70;19.02;;;;;;;;;;5052671;28;20352;-76
2023/12/02 06:04:42;;;;;;;32.30;19.50;;;;;;;;;;5041404;28;20033;-76
2023/12/02 06:07:08;;;;;;;33.50;19.25;;;;;;;;;;5039735;28;20045;-76
2023/12/02 06:09:35;;;;;;;31.83;19.17;;;;;;;;;;5046383;28;20035;-76
2023/12/02 06:12:01;;;;;;;33.58;18.70;;;;;;;;;;5052195;28;20037;-76
2023/12/02 06:14:27;;;;;;;33.13;19.45;;;;;;;;;;5049315;28;20029;-76
2023/12/02 06:16:53;;;;;;;35.72;19.63;;;;;;;;;;5039275;28;20034;-76
2023/12/02 06:19:20;;;;;;;31.85;19.73;;;;;;;;;;5044021;28;20100;-76
2023/12/02 06:21:46;;;;;;;29.73;17.67;;;;;;;;;;5051380;28;20021;-76
2023/12/02 06:24:12;;;;;;;32.97;20.33;;;;;;;;;;5041517;28;20095;-76
2023/12/02 06:26:39;;;;;;;33.92;19.73;;;;;;;;;;5052804;28;20029;-76
2023/12/02 06:29:05;;;;;;;30.95;18.95;;;;;;;;;;5052340;28;20067;-76
2023/12/02 06:31:31;;;;;;;35.35;20.25;;;;;;;;;;5043333;28;20063;-76
2023/12/02 06:33:57;;;;;;;39.40;19.25;;;;;;;;;;5052858;28;20451;-76
2023/12/02 06:36:23;;;;;;;31.55;19.75;;;;;;;;;;5049275;28;20540;-76
2023/12/02 06:38:49;;;;;;;35.92;21.23;;;;;;;;;;5049915;28;20056;-76
2023/12/02 06:41:15;;;;;;;37.15;20.40;;;;;;;;;;5043713;28;20056;-76
2023/12/02 06:43:41;;;;;;;34.63;19.73;;;;;;;;;;5051319;28;20029;-76
2023/12/02 06:46:08;;;;;;;37.15;20.98;;;;;;;;;;5053972;28;20029;-76
2023/12/02 06:48:35;;;;;;;34.47;19.92;;;;;;;;;;5041979;28;20037;-76
2023/12/02 06:51:01;;;;;;;37.60;20.60;;;;;;;;;;5042005;28;20674;-76
2023/12/02 06:53:27;;;;;;;33.78;20.33;;;;;;;;;;5027589;28;20062;-77
2023/12/02 06:55:53;;;;;;;36.20;21.17;;;;;;;;;;5046844;28;20025;-76
2023/12/02 06:58:19;;;;;;;32.22;20.15;;;;;;;;;;5051483;28;20033;-76
2023/12/02 07:00:45;;;;;;;37.08;19.73;;;;;;;;;;5049041;28;20033;-76
2023/12/02 07:03:12;;;;;;;33.67;19.10;;;;;;;;;;5044108;28;20472;-76
2023/12/02 07:05:38;;;;;;;36.05;19.92;;;;;;;;;;5051099;28;20079;-76
2023/12/02 07:08:04;;;;;;;34.92;20.75;;;;;;;;;;5041259;28;20049;-76
2023/12/02 07:10:30;;;;;;;37.22;21.08;;;;;;;;;;5048803;28;20104;-76
2023/12/02 07:12:56;;;;;;;35.85;19.92;;;;;;;;;;5030240;28;20048;-76
2023/12/02 07:15:22;;;;;;;35.25;20.38;;;;;;;;;;5047451;28;20044;-76
2023/12/02 07:17:48;;;;;;;34.78;20.90;;;;;;;;;;5050870;28;20067;-76
2023/12/02 07:20:15;;;;;;;36.55;22.05;;;;;;;;;;5051908;28;20025;-76
2023/12/02 07:22:41;;;;;;;34.47;20.13;;;;;;;;;;5048856;28;20597;-76
2023/12/02 07:25:07;;;;;;;46.05;21.95;;;;;;;;;;5044662;28;20470;-76
2023/12/02 07:27:33;;;;;;;41.28;22.55;;;;;;;;;;5043717;28;20033;-76
2023/12/02 07:29:59;;;;;;;42.42;21.42;;;;;;;;;;5045899;28;20127;-76
2023/12/02 07:32:26;;;;;;;37.05;22.40;;;;;;;;;;5047433;28;20033;-76
2023/12/02 07:34:52;;;;;;;36.40;21.40;;;;;;;;;;5047347;28;20029;-76
2023/12/02 07:37:18;;;;;;;40.47;21.98;;;;;;;;;;5043576;28;20251;-77
2023/12/02 07:39:44;;;;;;;42.22;23.98;;;;;;;;;;5049986;28;20033;-75
2023/12/02 07:42:10;;;;;;;41.92;23.45;;;;;;;;;;5028868;28;20767;-75
2023/12/02 07:44:36;;;;;;;44.85;23.27;;;;;;;;;;5031780;28;20056;-75
2023/12/02 07:47:02;;;;;;;36.28;20.63;;;;;;;;;;5039249;28;20036;-75
2023/12/02 07:49:28;;;;;;;38.80;21.05;;;;;;;;;;5026695;28;20038;-75
2023/12/02 07:51:55;;;;;;;35.38;21.60;;;;;;;;;;5048944;28;20071;-75
2023/12/02 07:54:21;;;;;;;44.08;22.33;;;;;;;;;;5041229;28;20045;-75
2023/12/02 07:56:47;;;;;;;40.40;23.30;;;;;;;;;;5050072;28;20487;-76
2023/12/02 07:59:13;;;;;;;51.80;29.60;;;;;;;;;;5048252;28;20041;-75
2023/12/02 08:01:40;;;;;;;45.30;24.88;;;;;;;;;;5048700;28;20112;-75
2023/12/02 08:04:06;;;;;;;44.35;24.30;;;;;;;;;;5045497;28;20530;-76
2023/12/02 08:06:32;;;;;;;42.60;23.15;;;;;;;;;;5043729;28;20091;-76
2023/12/02 08:08:58;;;;;;;42.67;24.08;;;;;;;;;;5040884;28;20112;-74
2023/12/02 08:11:24;;;;;;;41.70;23.90;;;;;;;;;;5044790;28;21930;-76
2023/12/02 08:13:50;;;;;;;49.42;27.48;;;;;;;;;;5034104;28;20660;-75
2023/12/02 08:16:16;;;;;;;56.53;29.52;;;;;;;;;;5044084;28;20029;-76
2023/12/02 08:18:42;;;;;;;61.10;33.92;;;;;;;;;;5022446;28;20033;-76
2023/12/02 08:21:09;;;;;;;50.75;26.17;;;;;;;;;;5045072;28;20076;-76
2023/12/02 08:23:35;;;;;;;55.17;25.35;;;;;;;;;;5045779;28;20095;-74
2023/12/02 08:26:01;;;;;;;43.53;24.10;;;;;;;;;;5049175;28;20021;-77
2023/12/02 08:28:27;;;;;;;47.38;28.52;;;;;;;;;;5042266;28;20938;-77
2023/12/02 08:30:53;;;;;;;62.95;36.53;;;;;;;;;;5054005;28;20421;-74
2023/12/02 08:33:19;;;;;;;51.10;28.60;;;;;;;;;;5050275;28;20055;-78
2023/12/02 08:35:45;;;;;;;44.45;25.90;;;;;;;;;;5054448;28;20025;-76
2023/12/02 08:38:11;;;;;;;45.33;24.73;;;;;;;;;;5043505;28;20026;-75
2023/12/02 08:40:39;;;;;;;54.78;25.88;;;;;;;;;;5052615;28;20025;-75
2023/12/02 08:43:05;;;;;;;45.20;24.67;;;;;;;;;;5054085;28;20037;-76
2023/12/02 08:45:31;;;;;;;44.92;25.98;;;;;;;;;;5035524;28;20478;-76
2023/12/02 08:47:57;;;;;;;44.47;25.15;;;;;;;;;;5036617;28;20474;-76
2023/12/02 08:50:23;;;;;;;41.97;23.27;;;;;;;;;;5055309;28;20094;-75
2023/12/02 08:52:49;;;;;;;40.67;21.60;;;;;;;;;;5056185;28;20037;-75
2023/12/02 08:55:15;;;;;;;41.22;22.20;;;;;;;;;;5047935;28;20045;-75
2023/12/02 08:57:41;;;;;;;38.45;21.83;;;;;;;;;;5046607;28;20033;-76
2023/12/02 09:00:08;;;;;;;37.53;21.95;;;;;;;;;;5053790;28;20033;-76
2023/12/02 09:02:34;;;;;;;47.00;23.98;;;;;;;;;;5046298;28;20078;-78
2023/12/02 09:05:02;;;;;;;40.35;23.08;;;;;;;;;;5026965;28;20033;-75
2023/12/02 09:07:28;;;;;;;40.83;23.10;;;;;;;;;;5047673;28;20037;-80
2023/12/02 09:09:54;;;;;;;72.82;37.15;;;;;;;;;;5053371;28;20112;-74
2023/12/02 09:12:21;;;;;;;41.63;22.55;;;;;;;;;;5045170;28;20040;-75
2023/12/02 09:14:47;;;;;;;63.97;35.38;;;;;;;;;;5049955;28;20041;-74
2023/12/02 09:17:49;;;;;;;42.13;23.50;;;;;;;;;;5050367;28;20029;-75
2023/12/02 09:20:36;;;;;;;36.67;20.83;;;;;;;;;;4963820;28;20023;-76
2023/12/02 09:23:02;;;;;;;40.40;22.90;;;;;;;;;;5045493;28;20517;-76
2023/12/02 09:25:29;;;;;;;39.55;23.23;;;;;;;;;;5036084;28;20029;-76
2023/12/02 09:28:10;;;;;;;39.33;22.83;;;;;;;;;;5043451;28;20558;-75
2023/12/02 09:30:37;;;;;;;42.85;23.77;;;;;;;;;;5050820;28;20107;-76
2023/12/02 09:33:06;;;;;;;44.72;22.95;;;;;;;;;;5053057;28;20533;-76
2023/12/02 09:35:32;;;;;;;44.00;23.90;;;;;;;;;;5050301;28;20025;-76
2023/12/02 09:37:59;;;;;;;41.75;23.60;;;;;;;;;;5053566;28;20025;-77
2023/12/02 09:40:41;;;;;;;44.50;24.63;;;;;;;;;;5052752;28;20417;-77
2023/12/02 09:43:13;;;;;;;42.78;24.15;;;;;;;;;;5044554;28;20038;-76
2023/12/02 09:45:43;;;;;;;42.90;24.20;;;;;;;;;;5046391;28;20033;-75
2023/12/02 09:48:20;;;;;;;38.95;22.73;;;;;;;;;;5043510;28;20049;-80
2023/12/02 09:51:02;;;;;;;39.95;21.98;;;;;;;;;;5041190;28;20087;-75
2023/12/02 09:53:30;;;;;;;37.95;22.38;;;;;;;;;;5048119;28;20017;-76
2023/12/02 09:56:00;;;;;;;41.13;21.75;;;;;;;;;;5039835;28;20048;-76
2023/12/02 09:58:43;;;;;;;38.22;22.10;;;;;;;;;;5046946;28;20059;-76
2023/12/02 10:01:26;;;;;;;38.17;21.52;;;;;;;;;;5045047;28;20525;-78
2023/12/02 10:04:03;;;;;;;35.90;21.40;;;;;;;;;;5048827;28;20037;-77
2023/12/02 10:06:35;;;;;;;37.40;21.80;;;;;;;;;;5041062;28;20033;-76
2023/12/02 10:09:25;;;;;;;39.95;21.98;;;;;;;;;;5042434;28;20033;-76
2023/12/02 10:12:10;;;;;;;42.65;22.33;;;;;;;;;;5028064;28;20045;-76
2023/12/02 10:14:39;;;;;;;35.80;20.85;;;;;;;;;;5057837;28;20029;-77
2023/12/02 10:17:08;;;;;;;39.92;21.65;;;;;;;;;;5043257;28;20535;-77
2023/12/02 10:19:40;;;;;;;35.33;21.27;;;;;;;;;;5035667;28;20103;-78
2023/12/02 10:22:07;;;;;;;37.22;21.08;;;;;;;;;;5044376;28;20180;-80
2023/12/02 10:24:43;;;;;;;34.08;19.58;;;;;;;;;;5038323;28;20033;-77
2023/12/02 10:27:13;;;;;;;47.92;19.30;;;;;;;;;;5036414;28;20506;-79
2023/12/02 10:29:42;;;;;;;32.50;19.15;;;;;;;;;;5036363;28;20030;-78
2023/12/02 10:32:11;;;;;;;33.13;18.55;;;;;;;;;;5040110;28;20033;-79
2023/12/02 10:34:39;;;;;;;28.08;17.00;;;;;;;;;;5050890;28;20033;-78
2023/12/02 10:37:05;;;;;;;23.73;15.52;;;;;;;;;;5036705;28;20025;-74
2023/12/02 10:39:37;;;;;;;26.52;16.10;;;;;;;;;;5038224;28;20032;-78
2023/12/02 10:42:04;;;;;;;22.63;14.50;;;;;;;;;;5021955;28;20494;-78
2023/12/02 10:44:32;;;;;;;25.85;16.02;;;;;;;;;;5023894;28;20041;-78
2023/12/02 10:46:59;;;;;;;19.50;12.65;;;;;;;;;;5041690;28;20497;-76
2023/12/02 10:49:25;;;;;;;19.05;13.60;;;;;;;;;;5030622;28;20139;-77
2023/12/02 10:51:54;;;;;;;22.65;13.45;;;;;;;;;;5044021;28;20040;-74
2023/12/02 10:54:23;;;;;;;20.27;12.82;;;;;;;;;;5046382;28;20513;-76
2023/12/02 10:56:50;;;;;;;19.08;11.82;;;;;;;;;;5048371;28;20025;-74
2023/12/02 10:59:22;;;;;;;19.98;13.13;;;;;;;;;;5021694;28;20069;-74
2023/12/02 11:01:54;;;;;;;18.35;11.75;;;;;;;;;;5045946;28;20033;-75
2023/12/02 11:04:33;;;;;;;15.52;10.15;;;;;;;;;;5049936;28;20028;-75
2023/12/02 11:07:03;;;;;;;16.05;10.38;;;;;;;;;;5044915;28;20413;-75
2023/12/02 11:09:32;;;;;;;18.17;10.23;;;;;;;;;;5040511;28;20078;-75
2023/12/02 11:12:10;;;;;;;11.88;8.05;;;;;;;;;;5041908;28;20033;-75
2023/12/02 11:14:39;;;;;;;13.65;8.18;;;;;;;;;;5032069;28;20030;-75
2023/12/02 11:17:06;;;;;;;12.15;7.65;;;;;;;;;;5047951;28;20037;-75
2023/12/02 11:19:41;;;;;;;11.43;7.03;;;;;;;;;;5034982;28;20021;-76
2023/12/02 11:22:07;;;;;;;10.48;6.90;;;;;;;;;;5048644;28;20323;-75
2023/12/02 11:24:57;;;;;;;11.63;7.43;;;;;;;;;;5051482;28;20039;-74
2023/12/02 11:27:41;;;;;;;8.60;5.68;;;;;;;;;;5048100;28;20128;-73
2023/12/02 11:30:10;;;;;;;10.93;5.75;;;;;;;;;;5043003;28;20026;-73
2023/12/02 11:32:36;;;;;;;12.88;5.82;;;;;;;;;;5031453;28;20055;-74
2023/12/02 11:35:21;;;;;;;7.40;5.20;;;;;;;;;;5031908;28;20032;-80
2023/12/02 11:37:57;;;;;;;8.57;5.65;;;;;;;;;;5034813;28;20048;-74
2023/12/02 11:40:42;;;;;;;8.70;5.20;;;;;;;;;;5041620;28;20557;-73
2023/12/02 11:43:26;;;;;;;7.97;4.53;;;;;;;;;;5036435;28;20538;-73
2023/12/02 11:46:03;;;;;;;7.85;4.30;;;;;;;;;;5034652;28;20033;-74
2023/12/02 11:48:32;;;;;;;7.43;4.43;;;;;;;;;;5040066;28;20376;-74
2023/12/02 11:51:07;;;;;;;7.82;4.28;;;;;;;;;;5038103;28;20502;-75
2023/12/02 11:53:34;;;;;;;5.75;3.92;;;;;;;;;;5049573;28;20036;-75
2023/12/02 11:56:19;;;;;;;7.75;4.28;;;;;;;;;;5038551;28;20432;-75
2023/12/02 11:58:55;;;;;;;5.32;3.50;;;;;;;;;;5044009;28;20912;-71
2023/12/02 12:01:31;;;;;;;4.78;3.83;;;;;;;;;;5032955;28;20037;-75
2023/12/02 12:04:16;;;;;;;7.40;4.47;;;;;;;;;;5039965;28;20033;-75
2023/12/02 12:07:00;;;;;;;7.95;3.63;;;;;;;;;;5041466;28;20127;-75
2023/12/02 12:09:29;;;;;;;6.85;4.45;;;;;;;;;;5036116;28;20406;-74
2023/12/02 12:11:57;;;;;;;6.72;3.38;;;;;;;;;;5044886;28;20490;-74
2023/12/02 12:14:24;;;;;;;5.22;3.50;;;;;;;;;;5050094;28;20441;-75
2023/12/02 12:16:50;;;;;;;4.38;3.22;;;;;;;;;;5048359;28;20487;-75
2023/12/02 12:19:16;;;;;;;6.80;3.55;;;;;;;;;;5042326;28;20125;-75
2023/12/02 12:21:44;;;;;;;7.47;3.67;;;;;;;;;;5042353;28;20048;-76
2023/12/02 12:24:10;;;;;;;7.00;3.03;;;;;;;;;;5036886;28;20060;-76
2023/12/02 12:26:36;;;;;;;4.60;3.20;;;;;;;;;;5039434;28;20033;-76
2023/12/02 12:29:02;;;;;;;4.57;2.78;;;;;;;;;;5033958;28;20033;-76
2023/12/02 12:31:31;;;;;;;5.72;3.47;;;;;;;;;;5016857;28;20064;-75
2023/12/02 12:34:00;;;;;;;5.57;3.13;;;;;;;;;;5040315;28;20041;-76
2023/12/02 12:36:28;;;;;;;7.38;3.08;;;;;;;;;;5035917;28;20049;-75
2023/12/02 12:38:57;;;;;;;3.63;3.20;;;;;;;;;;5040138;28;20028;-76
2023/12/02 12:41:25;;;;;;;8.43;3.20;;;;;;;;;;5032640;28;20033;-78
2023/12/02 12:43:51;;;;;;;5.05;3.63;;;;;;;;;;5038855;28;20452;-77
2023/12/02 12:46:17;;;;;;;3.25;2.80;;;;;;;;;;5037214;28;20025;-78
2023/12/02 12:48:53;;;;;;;3.63;2.85;;;;;;;;;;5038978;28;20053;-76
2023/12/02 12:51:22;;;;;;;4.38;2.40;;;;;;;;;;5030598;28;20025;-75
2023/12/02 12:53:52;;;;;;;6.30;2.72;;;;;;;;;;5040083;28;20108;-76
2023/12/02 12:56:24;;;;;;;3.65;3.17;;;;;;;;;;5048849;28;20075;-79
2023/12/02 12:58:54;;;;;;;3.47;2.63;;;;;;;;;;5045735;28;20414;-76
2023/12/02 13:01:22;;;;;;;8.80;3.25;;;;;;;;;;5041621;28;20501;-77
2023/12/02 13:03:51;;;;;;;7.20;3.40;;;;;;;;;;5038622;28;20022;-75
2023/12/02 13:06:18;;;;;;;8.93;3.65;;;;;;;;;;5044240;28;20025;-75
2023/12/02 13:09:13;;;;;;;8.32;4.07;;;;;;;;;;5039179;28;20041;-75
2023/12/02 13:12:04;;;;;;;6.97;3.95;;;;;;;;;;5048254;28;20374;-74
2023/12/02 13:14:35;;;;;;;10.07;3.72;;;;;;;;;;5034594;28;20064;-75
2023/12/02 13:17:03;;;;;;;7.68;3.50;;;;;;;;;;5053867;28;20025;-74
2023/12/02 13:19:32;;;;;;;4.60;3.10;;;;;;;;;;5046048;28;20068;-73
2023/12/02 13:22:01;;;;;;;5.55;3.97;;;;;;;;;;5043879;28;20029;-73
2023/12/02 13:24:29;;;;;;;7.85;3.75;;;;;;;;;;5034541;28;20086;-73
2023/12/02 13:26:55;;;;;;;6.57;3.95;;;;;;;;;;5034915;28;20429;-73
2023/12/02 13:29:23;;;;;;;5.35;3.40;;;;;;;;;;5047990;28;20037;-74
2023/12/02 13:31:50;;;;;;;7.80;3.17;;;;;;;;;;5042308;28;20387;-73
2023/12/02 13:34:30;;;;;;;6.13;3.70;;;;;;;;;;5045662;28;20032;-73
2023/12/02 13:36:56;;;;;;;5.07;3.33;;;;;;;;;;5027897;28;20382;-73
2023/12/02 13:39:27;;;;;;;6.32;3.58;;;;;;;;;;5026448;28;20470;-75
2023/12/02 13:41:53;;;;;;;6.68;4.28;;;;;;;;;;5046315;28;20029;-73
2023/12/02 13:44:23;;;;;;;4.80;3.88;;;;;;;;;;5049420;28;20117;-73
2023/12/02 13:47:07;;;;;;;6.05;2.88;;;;;;;;;;5043579;28;20135;-73
2023/12/02 13:49:38;;;;;;;5.30;2.90;;;;;;;;;;5033552;28;20495;-74
2023/12/02 13:52:10;;;;;;;7.47;3.65;;;;;;;;;;5046273;28;20025;-75
2023/12/02 13:54:54;;;;;;;5.03;3.13;;;;;;;;;;5043897;28;20041;-75
2023/12/02 13:57:35;;;;;;;2.47;2.10;;;;;;;;;;5047780;28;20037;-75
2023/12/02 14:00:08;;;;;;;3.63;1.75;;;;;;;;;;5041506;28;20111;-75
2023/12/02 14:02:55;;;;;;;3.83;2.45;;;;;;;;;;5042344;28;20025;-73
2023/12/02 14:05:33;;;;;;;5.03;2.67;;;;;;;;;;5044725;28;20509;-74
2023/12/02 14:08:04;;;;;;;3.47;2.55;;;;;;;;;;5043955;28;20033;-74
2023/12/02 14:10:31;;;;;;;3.65;2.70;;;;;;;;;;5031160;28;20032;-74
2023/12/02 14:13:05;;;;;;;5.00;3.38;;;;;;;;;;5044131;28;20434;-75
2023/12/02 14:15:43;;;;;;;5.28;2.40;;;;;;;;;;5043243;28;20655;-72
2023/12/02 14:18:24;;;;;;;4.07;2.75;;;;;;;;;;5045640;28;20504;-77
2023/12/02 14:21:09;;;;;;;5.05;3.53;;;;;;;;;;5039928;28;20120;-75
2023/12/02 14:23:53;;;;;;;4.85;2.90;;;;;;;;;;5045159;28;20506;-75
2023/12/02 14:26:28;;;;;;;6.90;2.97;;;;;;;;;;5042580;28;20111;-75
2023/12/02 14:29:18;;;;;;;3.72;3.05;;;;;;;;;;5043030;28;20517;-73
2023/12/02 14:31:44;;;;;;;7.18;3.97;;;;;;;;;;5019348;28;20106;-75